createdAt,value
2023-09-25T00:01:54.535Z,12.5
2023-09-25T00:11:55.568Z,12.4
2023-09-25T00:41:57.443Z,12.3
2023-09-25T01:01:59.001Z,12.2
2023-09-25T01:11:59.683Z,12
2023-09-25T01:42:01.963Z,11.5
2023-09-25T01:52:02.540Z,11.5
2023-09-25T02:02:03.267Z,11.5
2023-09-25T02:12:04.213Z,11.5
2023-09-25T02:32:05.612Z,11.4
2023-09-25T02:42:06.193Z,11.3
2023-09-25T02:52:06.689Z,11.3
2023-09-25T03:12:07.340Z,11.2
2023-09-25T03:22:07.457Z,11
2023-09-25T03:42:08.399Z,10.8
2023-09-25T03:52:09.474Z,10.8
2023-09-25T04:02:10.508Z,10.8
2023-09-25T04:12:10.799Z,10.8
2023-09-25T04:22:11.586Z,10.7
2023-09-25T04:32:11.947Z,10.7
2023-09-25T04:42:12.701Z,10.7
2023-09-25T05:02:13.565Z,10.4
2023-09-25T05:12:14.371Z,10.4
2023-09-25T05:22:15.009Z,10.4
2023-09-25T05:42:15.714Z,10.5
2023-09-25T05:52:16.065Z,10.5
2023-09-25T06:02:16.810Z,10.7
2023-09-25T06:12:17.645Z,10.8
2023-09-25T06:22:18.676Z,11
2023-09-25T06:32:18.975Z,11.2
2023-09-25T06:42:19.939Z,11.5
2023-09-25T06:52:21.643Z,11.7
2023-09-25T07:12:20.986Z,12.4
2023-09-25T07:22:21.778Z,12.9
2023-09-25T07:32:22.558Z,13.2
2023-09-25T07:42:22.926Z,13.7
2023-09-25T07:52:23.794Z,14.2
2023-09-25T08:02:24.033Z,14.8
2023-09-25T08:22:25.324Z,15.8
2023-09-25T08:32:25.939Z,16.3
2023-09-25T08:42:26.591Z,16.7
2023-09-25T08:52:27.565Z,17.3
2023-09-25T09:02:28.463Z,17.9
2023-09-25T09:12:28.651Z,18.3
2023-09-25T09:22:28.967Z,18.5
2023-09-25T09:42:31.650Z,19.2
2023-09-25T09:52:31.254Z,19.5
2023-09-25T10:02:31.826Z,19.6
2023-09-25T10:12:32.338Z,19.7
2023-09-25T10:22:32.686Z,20.1
2023-09-25T10:32:33.138Z,20.7
2023-09-25T10:42:34.034Z,21.3
2023-09-25T11:02:34.701Z,21.9
2023-09-25T11:12:35.779Z,22.1
2023-09-25T11:22:36.390Z,22.5
2023-09-25T11:32:37.090Z,22.7
2023-09-25T11:42:38.045Z,22.9
2023-09-25T11:52:39.009Z,23
2023-09-25T12:12:40.278Z,23
2023-09-25T12:22:40.828Z,23.2
2023-09-25T12:32:41.863Z,23.4
2023-09-25T12:42:53.488Z,23.2
2023-09-25T12:52:42.975Z,23.3
2023-09-25T13:02:43.628Z,23.4
2023-09-25T13:12:44.076Z,23.2
2023-09-25T13:22:44.649Z,23.3
2023-09-25T13:32:45.518Z,23.6
2023-09-25T13:52:46.679Z,23.7
2023-09-25T14:02:47.536Z,23.6
2023-09-25T14:32:49.735Z,23
2023-09-25T20:13:08.847Z,14.1
2023-09-25T20:23:09.336Z,14
2023-09-25T20:33:09.466Z,13.7
2023-09-25T20:43:10.519Z,13.4
2023-09-25T21:03:11.125Z,13.3
2023-09-25T21:13:11.686Z,13.1
2023-09-25T21:23:12.396Z,13.1
2023-09-25T21:33:12.988Z,13.1
2023-09-25T21:43:13.212Z,13.1
2023-09-25T22:03:15.198Z,13
2023-09-25T22:13:15.753Z,13
2023-09-25T22:23:16.231Z,12.7
2023-09-25T22:33:17.110Z,12.5
2023-09-25T22:43:17.572Z,12.3
2023-09-25T22:53:18.485Z,12.2
2023-09-25T23:03:19.325Z,12.3
2023-09-25T23:13:19.481Z,12.3
2023-09-25T23:33:20.623Z,12.1
2023-09-25T23:43:21.602Z,11.8
2023-09-25T23:53:22.239Z,11.7
